Time;durP1;ratioP1;P1;durP2;ratioP2;P2;SDS_P1;SDS_P2;PMS_P1;PMS_P2;Temp;Humidity;BMP_temperature;BMP_pressure;BME280_temperature;BME280_humidity;BME280_pressure;Samples;Min_cycle;Max_cycle;Signal;HPM_P1;HPM_P2
2021/04/03 00:01:12;;;;;;;;;;;;;;;18.29;25.32;99679.66;5332343;26;33281;-93
2021/04/03 00:03:43;;;;;;;;;;;;;;;18.11;25.49;99686.09;5334054;26;32894;-94
2021/04/03 00:06:10;;;;;;;;;;;;;;;18.66;24.73;99681.72;5332802;26;32926;-94
2021/04/03 00:08:38;;;;;;;;;;;;;;;18.77;25.23;99670.44;5332425;26;33055;-93
2021/04/03 00:11:06;;;;;;;;;;;;;;;18.22;25.79;99662.56;5332854;26;33129;-93
2021/04/03 00:13:35;;;;;;;;;;;;;;;18.29;25.71;99658.56;5331949;26;32088;-93
2021/04/03 00:16:03;;;;;;;;;;;;;;;18.41;25.46;99672.75;5332729;26;33386;-92
2021/04/03 00:18:33;;;;;;;;;;;;;;;18.29;25.82;99669.09;5333590;26;33972;-92
2021/04/03 00:21:00;;;;;;;;;;;;;;;18.34;25.66;99661.75;5333564;26;33742;-92
2021/04/03 00:23:35;;;;;;;;;;;;;;;18.05;25.34;99660.16;5334622;26;32444;-93
2021/04/03 00:26:04;;;;;;;;;;;;;;;18.50;24.23;99679.22;5332923;26;33332;-93
2021/04/03 00:28:33;;;;;;;;;;;;;;;18.64;24.04;99680.94;5332645;26;34186;-93
2021/04/03 00:31:00;;;;;;;;;;;;;;;18.16;24.67;99692.78;5350675;26;32942;-93
2021/04/03 00:33:48;;;;;;;;;;;;;;;19.03;23.61;99689.88;5337790;26;32694;-93
2021/04/03 00:36:17;;;;;;;;;;;;;;;18.76;23.95;99687.22;5351959;26;33823;-93
2021/04/03 00:38:44;;;;;;;;;;;;;;;19.25;23.17;99680.50;5335795;26;33190;-93
2021/04/03 00:41:12;;;;;;;;;;;;;;;18.53;24.09;99695.72;5340150;26;32921;-92
2021/04/03 00:43:39;;;;;;;;;;;;;;;18.66;23.85;99701.03;5360575;26;31827;-91
2021/04/03 00:46:11;;;;;;;;;;;;;;;18.86;23.76;99709.44;5360690;26;32747;-91
2021/04/03 00:48:59;;;;;;;;;;;;;;;19.16;23.75;99701.28;5348393;26;35503;-93
2021/04/03 00:51:28;;;;;;;;;;;;;;;19.12;23.83;99693.66;5341390;26;33279;-93
2021/04/03 00:53:56;;;;;;;;;;;;;;;19.05;23.74;99697.69;5333190;26;32077;-93
2021/04/03 00:56:24;;;;;;;;;;;;;;;17.97;25.07;99697.53;5333130;26;32648;-94
2021/04/03 00:58:58;;;;;;;;;;;;;;;18.31;24.82;99698.88;5334660;26;33119;-92
2021/04/03 01:01:26;;;;;;;;;;;;;;;17.50;25.76;99694.22;5351468;26;32766;-93
2021/04/03 01:03:59;;;;;;;;;;;;;;;17.39;25.50;99700.12;5351325;26;31080;-93
2021/04/03 01:06:27;;;;;;;;;;;;;;;17.85;24.92;99707.84;5331414;26;34200;-93
2021/04/03 01:08:54;;;;;;;;;;;;;;;17.23;26.10;99686.16;5332684;26;34434;-94
2021/04/03 01:11:24;;;;;;;;;;;;;;;17.59;25.82;99669.09;5351376;26;32762;-93
2021/04/03 01:14:12;;;;;;;;;;;;;;;17.74;25.90;99668.16;5351267;26;32778;-93
2021/04/03 01:16:46;;;;;;;;;;;;;;;17.91;25.80;99668.88;5335820;26;34447;-92
2021/04/03 01:19:29;;;;;;;;;;;;;;;17.82;25.80;99672.94;5317417;26;33157;-92
2021/04/03 01:22:05;;;;;;;;;;;;;;;17.64;25.99;99659.97;5335664;26;32996;-93
2021/04/03 01:24:52;;;;;;;;;;;;;;;18.28;24.72;99664.81;5370593;26;33418;-93
2021/04/03 01:27:20;;;;;;;;;;;;;;;18.16;24.82;99660.28;5351119;26;32939;-92
2021/04/03 01:30:08;;;;;;;;;;;;;;;17.79;25.41;99660.81;5351247;26;33576;-92
2021/04/03 01:32:40;;;;;;;;;;;;;;;18.00;25.17;99652.50;5333368;26;32956;-93
2021/04/03 01:35:09;;;;;;;;;;;;;;;17.71;25.63;99655.19;5332045;26;32708;-92
2021/04/03 01:37:40;;;;;;;;;;;;;;;17.57;25.78;99669.19;5333374;26;32883;-92
2021/04/03 01:40:08;;;;;;;;;;;;;;;17.66;25.86;99681.78;5333244;26;33141;-91
2021/04/03 01:42:36;;;;;;;;;;;;;;;17.65;25.91;99674.81;5332538;26;33206;-92
2021/04/03 01:45:13;;;;;;;;;;;;;;;18.01;25.47;99684.03;5360464;26;32275;-92
2021/04/03 01:47:40;;;;;;;;;;;;;;;17.47;26.46;99691.75;5342677;26;34408;-92
2021/04/03 01:50:10;;;;;;;;;;;;;;;17.63;26.39;99697.78;5361299;26;34196;-92
2021/04/03 01:52:38;;;;;;;;;;;;;;;16.82;27.73;99688.47;5340924;26;32816;-93
2021/04/03 01:55:09;;;;;;;;;;;;;;;17.54;26.65;99693.09;5335221;26;32704;-93
2021/04/03 01:57:41;;;;;;;;;;;;;;;17.72;26.44;99688.47;5334046;26;33421;-93
2021/04/03 02:00:13;;;;;;;;;;;;;;;17.80;26.28;99672.19;5316140;26;33742;-93
2021/04/03 02:02:43;;;;;;;;;;;;;;;17.75;26.45;99666.34;5333615;26;33067;-93
2021/04/03 02:05:14;;;;;;;;;;;;;;;18.18;25.76;99666.31;5333932;26;31813;-93
2021/04/03 02:07:46;;;;;;;;;;;;;;;17.94;26.13;99671.38;5334160;26;33682;-94
2021/04/03 02:10:21;;;;;;;;;;;;;;;17.88;26.09;99675.19;5333513;26;32963;-93
2021/04/03 02:12:48;;;;;;;;;;;;;;;17.81;26.35;99679.16;5332986;26;32978;-94
2021/04/03 02:15:19;;;;;;;;;;;;;;;17.83;26.39;99677.28;5333556;26;31983;-93
2021/04/03 02:17:47;;;;;;;;;;;;;;;18.06;25.87;99680.28;5332778;26;33311;-93
2021/04/03 02:20:18;;;;;;;;;;;;;;;17.85;26.19;99673.59;5334002;26;33829;-93
2021/04/03 02:22:46;;;;;;;;;;;;;;;18.00;25.86;99666.56;5351080;26;32871;-93
2021/04/03 02:25:15;;;;;;;;;;;;;;;17.06;27.25;99652.94;5332951;26;33346;-93
2021/04/03 02:27:43;;;;;;;;;;;;;;;17.35;26.80;99652.06;5314304;26;32782;-94
2021/04/03 02:30:33;;;;;;;;;;;;;;;17.36;26.71;99650.25;5339112;26;33251;-94
2021/04/03 02:33:02;;;;;;;;;;;;;;;17.56;26.37;99645.56;5333154;26;33455;-94
2021/04/03 02:35:44;;;;;;;;;;;;;;;17.65;26.22;99645.84;5336166;26;33379;-94
2021/04/03 02:38:11;;;;;;;;;;;;;;;17.84;25.59;99649.97;5351130;26;33121;-92
2021/04/03 02:40:42;;;;;;;;;;;;;;;17.76;25.72;99650.44;5315296;26;33270;-94
2021/04/03 02:43:37;;;;;;;;;;;;;;;17.87;25.58;99647.16;5334728;26;33211;-94
2021/04/03 02:46:13;;;;;;;;;;;;;;;17.44;26.14;99640.09;5341776;26;33101;-94
2021/04/03 02:48:43;;;;;;;;;;;;;;;17.70;25.80;99632.41;5351105;26;33385;-96
2021/04/03 02:51:11;;;;;;;;;;;;;;;17.17;26.48;99621.56;5351924;26;33022;-95
2021/04/03 02:53:43;;;;;;;;;;;;;;;17.84;25.56;99618.34;5333898;26;32954;-94
2021/04/03 02:56:18;;;;;;;;;;;;;;;17.59;25.92;99625.16;5352498;26;32238;-94
2021/04/03 02:58:53;;;;;;;;;;;;;;;17.87;25.34;99620.81;5333998;26;33257;-94
2021/04/03 03:01:23;;;;;;;;;;;;;;;17.09;26.33;99629.09;5351639;26;33475;-95
2021/04/03 03:03:54;;;;;;;;;;;;;;;17.73;25.39;99623.47;5334495;26;33536;-94
2021/04/03 03:06:24;;;;;;;;;;;;;;;18.00;25.01;99618.25;5351581;26;32495;-93
2021/04/03 03:08:54;;;;;;;;;;;;;;;17.40;25.81;99632.50;5333411;26;32849;-94
2021/04/03 03:11:28;;;;;;;;;;;;;;;17.73;25.31;99652.44;5335829;26;33593;-94
2021/04/03 03:13:56;;;;;;;;;;;;;;;16.76;26.62;99665.16;5333112;26;32901;-94
2021/04/03 03:16:26;;;;;;;;;;;;;;;16.64;26.87;99689.53;5333215;26;32260;-94
2021/04/03 03:18:54;;;;;;;;;;;;;;;17.20;26.42;99695.09;5332845;26;32881;-92
2021/04/03 03:21:25;;;;;;;;;;;;;;;16.40;27.69;99686.53;5333069;26;33694;-91
2021/04/03 03:23:54;;;;;;;;;;;;;;;15.94;28.51;99693.38;5333275;26;33050;-92
2021/04/03 03:26:33;;;;;;;;;;;;;;;16.47;27.54;99688.72;5335281;26;32165;-92
2021/04/03 03:29:03;;;;;;;;;;;;;;;16.72;26.96;99691.72;5350874;26;33808;-92
2021/04/03 03:31:32;;;;;;;;;;;;;;;16.62;26.89;99689.63;5333000;26;34430;-93
2021/04/03 03:34:09;;;;;;;;;;;;;;;16.68;26.71;99685.78;5334936;26;33229;-93
2021/04/03 03:36:48;;;;;;;;;;;;;;;16.97;26.35;99686.78;5336336;26;32300;-94
2021/04/03 03:39:20;;;;;;;;;;;;;;;17.04;26.19;99689.88;5334096;26;32875;-93
2021/04/03 03:41:49;;;;;;;;;;;;;;;17.33;25.55;99690.78;5350727;26;33464;-92
2021/04/03 03:44:20;;;;;;;;;;;;;;;17.33;25.51;99697.84;5349537;26;33630;-92
2021/04/03 03:46:50;;;;;;;;;;;;;;;16.86;26.18;99694.41;5350191;26;32388;-92
2021/04/03 03:49:18;;;;;;;;;;;;;;;16.53;26.67;99680.47;5332008;26;33232;-94
2021/04/03 03:52:03;;;;;;;;;;;;;;;17.02;25.89;99678.63;5353426;26;33061;-92
2021/04/03 03:54:32;;;;;;;;;;;;;;;16.79;26.37;99670.25;5333211;26;32870;-93
2021/04/03 03:57:06;;;;;;;;;;;;;;;17.29;25.53;99665.59;5351318;26;31563;-93
2021/04/03 03:59:33;;;;;;;;;;;;;;;17.47;25.11;99657.50;5333350;26;32980;-92
2021/04/03 04:02:02;;;;;;;;;;;;;;;17.23;25.45;99662.47;5340303;26;33189;-92
2021/04/03 04:04:32;;;;;;;;;;;;;;;17.67;24.83;99662.41;5334080;26;33347;-92
2021/04/03 04:07:04;;;;;;;;;;;;;;;17.15;25.47;99640.09;5335263;26;31688;-93
2021/04/03 04:09:33;;;;;;;;;;;;;;;17.05;25.68;99640.75;5355258;26;32626;-92
2021/04/03 04:12:05;;;;;;;;;;;;;;;17.31;25.28;99636.53;5355447;26;32836;-92
2021/04/03 04:14:43;;;;;;;;;;;;;;;17.18;25.60;99644.34;5356403;26;33257;-93
2021/04/03 04:17:13;;;;;;;;;;;;;;;16.58;26.45;99643.41;5352761;26;32234;-94
2021/04/03 04:19:46;;;;;;;;;;;;;;;16.49;26.69;99650.03;5334709;26;32258;-93
2021/04/03 04:22:18;;;;;;;;;;;;;;;16.79;26.22;99650.97;5334174;26;33513;-93
2021/04/03 04:25:06;;;;;;;;;;;;;;;16.38;26.87;99668.19;5338077;26;33176;-92
2021/04/03 04:27:35;;;;;;;;;;;;;;;16.98;26.05;99662.16;5333860;26;32013;-92
2021/04/03 04:30:09;;;;;;;;;;;;;;;16.78;26.35;99660.66;5334236;26;32807;-92
2021/04/03 04:32:41;;;;;;;;;;;;;;;17.18;25.77;99666.22;5332715;26;33005;-93
2021/04/03 04:35:11;;;;;;;;;;;;;;;16.78;26.45;99659.78;5333057;26;34085;-93
2021/04/03 04:38:00;;;;;;;;;;;;;;;17.09;26.01;99672.03;5338935;26;32197;-92
2021/04/03 04:40:30;;;;;;;;;;;;;;;17.16;25.87;99683.91;5333064;26;32909;-92
2021/04/03 04:42:59;;;;;;;;;;;;;;;17.07;26.15;99678.34;5332309;26;33837;-91
2021/04/03 04:45:29;;;;;;;;;;;;;;;16.84;26.47;99688.37;5314126;26;33236;-93
2021/04/03 04:48:00;;;;;;;;;;;;;;;17.03;26.30;99702.22;5333136;26;31816;-92
2021/04/03 04:50:30;;;;;;;;;;;;;;;17.13;26.16;99709.56;5332601;26;33320;-93
2021/04/03 04:53:06;;;;;;;;;;;;;;;16.97;26.41;99722.78;5352110;26;34725;-92
2021/04/03 04:55:35;;;;;;;;;;;;;;;17.30;26.05;99724.38;5333277;26;33365;-92
2021/04/03 04:58:04;;;;;;;;;;;;;;;17.24;26.24;99730.84;5334197;26;32465;-93
2021/04/03 05:00:35;;;;;;;;;;;;;;;17.24;26.19;99727.37;5334368;26;33899;-92
2021/04/03 05:03:02;;;;;;;;;;;;;;;17.35;26.11;99728.44;5351029;26;33376;-92
2021/04/03 05:05:44;;;;;;;;;;;;;;;17.12;26.55;99726.28;5336817;26;33361;-94
2021/04/03 05:08:12;;;;;;;;;;;;;;;17.27;26.43;99722.78;5351365;26;32459;-93
2021/04/03 05:10:40;;;;;;;;;;;;;;;17.37;26.45;99723.06;5333440;26;33149;-93
2021/04/03 05:13:09;;;;;;;;;;;;;;;17.34;26.56;99726.72;5333013;26;33386;-93
2021/04/03 05:15:36;;;;;;;;;;;;;;;17.11;27.09;99725.47;5332592;26;32917;-92
2021/04/03 05:18:14;;;;;;;;;;;;;;;17.32;26.82;99726.00;5336411;26;32523;-93
2021/04/03 05:20:41;;;;;;;;;;;;;;;17.70;26.33;99728.09;5332730;26;33421;-93
2021/04/03 05:23:19;;;;;;;;;;;;;;;17.17;27.17;99727.72;5334303;26;34606;-92
2021/04/03 05:25:47;;;;;;;;;;;;;;;17.12;27.40;99729.75;5332824;26;32664;-94
2021/04/03 05:28:23;;;;;;;;;;;;;;;16.82;28.04;99738.47;5338302;26;32143;-94
2021/04/03 05:30:53;;;;;;;;;;;;;;;16.75;28.31;99752.06;5337344;26;32884;-92
2021/04/03 05:33:21;;;;;;;;;;;;;;;16.60;28.76;99759.88;5338127;26;32741;-93
2021/04/03 05:35:55;;;;;;;;;;;;;;;17.02;28.33;99761.03;5310317;26;873353;-92
2021/04/03 05:38:23;;;;;;;;;;;;;;;16.60;29.19;99767.75;5362779;26;33799;-93
2021/04/03 05:40:55;;;;;;;;;;;;;;;16.82;29.01;99780.56;5342702;26;32870;-94
2021/04/03 05:43:23;;;;;;;;;;;;;;;16.69;29.31;99775.13;5344413;26;32443;-93
2021/04/03 05:45:52;;;;;;;;;;;;;;;16.14;30.45;99784.28;5340565;26;33964;-92
2021/04/03 05:48:21;;;;;;;;;;;;;;;16.87;29.48;99778.53;5333705;26;31986;-93
2021/04/03 05:50:53;;;;;;;;;;;;;;;16.28;30.42;99774.78;5351014;26;34382;-92
2021/04/03 05:53:25;;;;;;;;;;;;;;;16.28;30.62;99769.53;5333633;26;33348;-92
2021/04/03 05:55:59;;;;;;;;;;;;;;;17.09;29.39;99763.34;5334417;26;33199;-92
2021/04/03 05:58:26;;;;;;;;;;;;;;;17.12;29.29;99760.50;5332967;26;32494;-94
2021/04/03 06:00:59;;;;;;;;;;;;;;;16.74;29.98;99764.37;5334425;26;32847;-93
2021/04/03 06:03:28;;;;;;;;;;;;;;;16.73;30.00;99759.22;5350604;26;34392;-93
2021/04/03 06:06:00;;;;;;;;;;;;;;;16.82;29.68;99761.31;5333768;26;32619;-92
2021/04/03 06:08:28;;;;;;;;;;;;;;;16.61;30.01;99776.53;5332672;26;32003;-92
2021/04/03 06:11:14;;;;;;;;;;;;;;;17.15;29.02;99766.47;5334941;26;32722;-93
2021/04/03 06:13:44;;;;;;;;;;;;;;;16.37;30.37;99779.56;5351277;26;33320;-91
2021/04/03 06:16:27;;;;;;;;;;;;;;;17.06;29.20;99790.69;5350248;26;33363;-93
2021/04/03 06:19:20;;;;;;;;;;;;;;;16.74;29.98;99795.94;5353668;26;32004;-92
2021/04/03 06:21:56;;;;;;;;;;;;;;;16.52;30.68;99789.22;5370047;26;32869;-92
2021/04/03 06:24:24;;;;;;;;;;;;;;;16.79;30.17;99793.91;5333868;26;33473;-93
2021/04/03 06:27:06;;;;;;;;;;;;;;;17.11;29.55;99795.66;5352614;26;33744;-93
2021/04/03 06:29:45;;;;;;;;;;;;;;;16.89;29.98;99796.88;5335873;26;32118;-93
2021/04/03 06:32:30;;;;;;;;;;;;;;;17.14;29.50;99793.72;5351258;26;33213;-93
2021/04/03 06:35:00;;;;;;;;;;;;;;;16.91;29.80;99809.97;5334266;26;33475;-93
2021/04/03 06:37:33;;;;;;;;;;;;;;;17.37;28.91;99797.63;5333060;26;32588;-92
2021/04/03 06:40:09;;;;;;;;;;;;;;;17.31;29.22;99803.28;5334583;26;32019;-92
2021/04/03 06:42:47;;;;;;;;;;;;;;;17.50;28.73;99802.19;5369757;26;32807;-95
2021/04/03 06:45:23;;;;;;;;;;;;;;;17.47;29.13;99792.69;5351523;26;32957;-93
2021/04/03 06:47:54;;;;;;;;;;;;;;;17.41;28.89;99798.31;5332989;26;34522;-93
2021/04/03 06:50:25;;;;;;;;;;;;;;;17.59;28.38;99791.12;5335706;26;32381;-94
2021/04/03 06:52:53;;;;;;;;;;;;;;;17.49;28.73;99800.50;5336116;26;33328;-92
2021/04/03 06:55:24;;;;;;;;;;;;;;;17.18;28.92;99803.13;5318792;26;34355;-93
2021/04/03 06:57:54;;;;;;;;;;;;;;;17.44;28.91;99807.81;5336137;26;34594;-94
2021/04/03 07:00:22;;;;;;;;;;;;;;;18.06;27.98;99812.09;5335758;26;31787;-93
2021/04/03 07:02:49;;;;;;;;;;;;;;;17.62;28.89;99806.75;5339165;26;33383;-92
2021/04/03 07:05:16;;;;;;;;;;;;;;;17.81;28.52;99816.19;5356278;26;33406;-94
2021/04/03 07:07:47;;;;;;;;;;;;;;;18.05;28.01;99823.59;5334671;26;33372;-92
2021/04/03 07:10:17;;;;;;;;;;;;;;;17.56;28.73;99822.91;5334068;26;32079;-96
2021/04/03 07:12:44;;;;;;;;;;;;;;;17.32;29.13;99827.81;5333581;26;34216;-92
2021/04/03 07:15:13;;;;;;;;;;;;;;;17.65;28.57;99829.44;5333506;26;33156;-93
2021/04/03 07:17:44;;;;;;;;;;;;;;;17.66;28.20;99821.41;5334333;26;32710;-93
2021/04/03 07:20:15;;;;;;;;;;;;;;;16.50;30.36;99827.91;5333967;26;32844;-93
2021/04/03 07:22:48;;;;;;;;;;;;;;;17.45;28.75;99827.97;5351515;26;32966;-94
2021/04/03 07:25:17;;;;;;;;;;;;;;;17.90;27.66;99831.44;5333443;26;33048;-93
2021/04/03 07:27:49;;;;;;;;;;;;;;;17.65;27.91;99827.63;5334135;26;33137;-93
2021/04/03 07:30:34;;;;;;;;;;;;;;;18.09;27.31;99814.53;5333991;26;32335;-93
2021/04/03 07:33:13;;;;;;;;;;;;;;;18.62;26.55;99818.25;5350743;26;32410;-94
2021/04/03 07:35:45;;;;;;;;;;;;;;;18.89;26.36;99824.56;5350942;26;34208;-94
2021/04/03 07:38:34;;;;;;;;;;;;;;;18.78;25.56;99815.50;5353516;26;33138;-93
2021/04/03 07:41:03;;;;;;;;;;;;;;;19.25;24.99;99818.69;5332942;26;33271;-93
2021/04/03 07:43:48;;;;;;;;;;;;;;;18.83;25.23;99821.34;5338058;26;33210;-93
2021/04/03 07:46:20;;;;;;;;;;;;;;;18.41;25.61;99820.47;5333474;26;33093;-93
2021/04/03 07:49:08;;;;;;;;;;;;;;;18.44;26.12;99824.69;5367573;26;32920;-93
2021/04/03 07:51:38;;;;;;;;;;;;;;;18.34;26.02;99827.06;5339432;26;32185;-94
2021/04/03 07:54:06;;;;;;;;;;;;;;;18.81;25.26;99836.44;5373549;26;33245;-94
2021/04/03 07:56:47;;;;;;;;;;;;;;;18.66;25.17;99843.50;5336782;26;33999;-94
2021/04/03 07:59:15;;;;;;;;;;;;;;;18.36;25.58;99847.13;5355074;26;34403;-94
2021/04/03 08:01:54;;;;;;;;;;;;;;;18.38;25.60;99846.19;5340290;26;31852;-93
2021/04/03 08:04:25;;;;;;;;;;;;;;;18.34;25.70;99842.91;5335609;26;33480;-93
2021/04/03 08:06:54;;;;;;;;;;;;;;;18.56;25.50;99841.56;5336569;26;32982;-94
2021/04/03 08:09:21;;;;;;;;;;;;;;;19.48;24.32;99843.56;5336276;26;33073;-93
2021/04/03 08:12:04;;;;;;;;;;;;;;;19.62;24.21;99847.91;5358178;26;34813;-94
2021/04/03 08:14:32;;;;;;;;;;;;;;;19.50;24.03;99851.38;5339088;26;33155;-93
2021/04/03 08:16:59;;;;;;;;;;;;;;;19.33;24.35;99848.09;5358486;26;34081;-94
2021/04/03 08:19:33;;;;;;;;;;;;;;;19.99;23.62;99848.09;5322801;26;32999;-94
2021/04/03 08:22:01;;;;;;;;;;;;;;;20.18;23.29;99853.00;5337594;26;33173;-93
2021/04/03 08:24:33;;;;;;;;;;;;;;;20.17;22.91;99850.47;5338544;26;32823;-92
2021/04/03 08:27:00;;;;;;;;;;;;;;;20.68;22.32;99852.16;5337186;26;33427;-94
2021/04/03 08:29:31;;;;;;;;;;;;;;;20.60;22.67;99857.16;5335877;26;34286;-93
2021/04/03 08:32:01;;;;;;;;;;;;;;;19.54;24.20;99858.16;5337726;26;32385;-95
2021/04/03 08:34:32;;;;;;;;;;;;;;;20.08;23.47;99866.97;5355563;26;33042;-94
2021/04/03 08:37:05;;;;;;;;;;;;;;;18.34;26.40;99846.38;5337125;26;32984;-93
2021/04/03 08:39:34;;;;;;;;;;;;;;;19.42;25.09;99856.34;5336261;26;32963;-93
2021/04/03 08:42:02;;;;;;;;;;;;;;;19.45;25.10;99862.28;5336995;26;32108;-94
2021/04/03 08:44:30;;;;;;;;;;;;;;;19.08;25.51;99856.75;5336188;26;33373;-95
2021/04/03 08:47:00;;;;;;;;;;;;;;;19.72;24.62;99865.81;5337515;26;32918;-94
2021/04/03 08:49:36;;;;;;;;;;;;;;;20.12;23.68;99863.16;5350821;26;33285;-94
2021/04/03 08:52:04;;;;;;;;;;;;;;;20.28;23.28;99868.22;5351949;26;32232;-94
2021/04/03 08:54:35;;;;;;;;;;;;;;;20.11;23.35;99867.56;5333302;26;33409;-95
2021/04/03 08:57:04;;;;;;;;;;;;;;;20.44;23.18;99868.00;5334151;26;34424;-93
2021/04/03 08:59:31;;;;;;;;;;;;;;;20.50;23.18;99867.53;5350982;26;33428;-92
2021/04/03 09:02:00;;;;;;;;;;;;;;;20.60;23.84;99863.31;5333897;26;32551;-94
2021/04/03 09:04:36;;;;;;;;;;;;;;;21.01;23.48;99854.22;5335493;26;34173;-93
2021/04/03 09:07:04;;;;;;;;;;;;;;;20.83;23.72;99855.53;5333063;26;33027;-94
2021/04/03 09:09:31;;;;;;;;;;;;;;;21.27;23.05;99862.06;5351327;26;34409;-93
2021/04/03 09:12:06;;;;;;;;;;;;;;;21.50;22.79;99851.56;5315123;26;31933;-94
2021/04/03 09:14:38;;;;;;;;;;;;;;;21.28;22.70;99853.12;5332961;26;32636;-95
2021/04/03 09:17:18;;;;;;;;;;;;;;;20.77;23.38;99850.72;5351382;26;32979;-95
2021/04/03 09:19:45;;;;;;;;;;;;;;;20.63;23.34;99846.34;5351005;26;33343;-93
2021/04/03 09:22:16;;;;;;;;;;;;;;;21.07;23.00;99849.44;5334063;26;32351;-94
2021/04/03 09:24:44;;;;;;;;;;;;;;;21.37;22.45;99841.03;5332821;26;32888;-94
2021/04/03 09:27:20;;;;;;;;;;;;;;;20.96;22.99;99853.69;5334909;26;33373;-93
2021/04/03 09:30:05;;;;;;;;;;;;;;;21.32;22.33;99856.41;5333713;26;33186;-94
2021/04/03 09:32:40;;;;;;;;;;;;;;;21.86;21.39;99863.03;5333890;26;32141;-93
2021/04/03 09:35:08;;;;;;;;;;;;;;;21.84;21.48;99860.50;5336908;26;33039;-95
2021/04/03 09:37:36;;;;;;;;;;;;;;;22.66;20.27;99864.78;5341290;26;32991;-93
2021/04/03 09:40:07;;;;;;;;;;;;;;;22.15;20.68;99866.09;5342086;26;33913;-94
2021/04/03 09:42:34;;;;;;;;;;;;;;;22.29;20.75;99857.03;5340467;26;32998;-93
2021/04/03 09:45:04;;;;;;;;;;;;;;;22.42;20.37;99859.62;5339316;26;34358;-93
2021/04/03 09:47:33;;;;;;;;;;;;;;;22.48;19.80;99864.44;5337011;26;34441;-93
2021/04/03 09:50:00;;;;;;;;;;;;;;;22.92;19.20;99871.63;5355763;26;34336;-94
2021/04/03 09:52:32;;;;;;;;;;;;;;;22.94;19.46;99875.00;5340761;26;32227;-92
2021/04/03 09:55:00;;;;;;;;;;;;;;;22.02;20.30;99879.44;5341124;26;34276;-92
2021/04/03 09:57:35;;;;;;;;;;;;;;;22.88;19.52;99875.50;5340822;26;33619;-93
2021/04/03 10:00:04;;;;;;;;;;;;;;;22.64;19.82;99869.38;5355542;26;34387;-92
2021/04/03 10:02:34;;;;;;;;;;;;;;;23.15;19.52;99875.12;5338749;26;32041;-94
2021/04/03 10:05:03;;;;;;;;;;;;;;;22.65;19.93;99875.53;5335816;26;32868;-92
2021/04/03 10:07:33;;;;;;;;;;;;;;;23.18;19.43;99881.00;5337663;26;33220;-93
2021/04/03 10:10:02;;;;;;;;;;;;;;;22.75;19.85;99873.84;5341598;26;32982;-93
2021/04/03 10:12:29;;;;;;;;;;;;;;;23.40;19.00;99881.06;5340651;26;33343;-93
2021/04/03 10:14:57;;;;;;;;;;;;;;;23.76;19.07;99870.97;5341635;26;33039;-93
2021/04/03 10:17:24;;;;;;;;;;;;;;;24.05;18.32;99875.69;5359966;26;32988;-92
2021/04/03 10:19:54;;;;;;;;;;;;;;;23.41;18.94;99886.25;5342262;26;33133;-92
2021/04/03 10:22:27;;;;;;;;;;;;;;;24.03;18.58;99889.13;5343607;26;33537;-92
2021/04/03 10:24:55;;;;;;;;;;;;;;;23.46;19.24;99885.88;5339326;26;33807;-95
2021/04/03 10:27:22;;;;;;;;;;;;;;;23.70;18.77;99885.66;5333295;26;32908;-92
2021/04/03 10:29:58;;;;;;;;;;;;;;;22.26;19.83;99875.84;5337350;26;33826;-94
2021/04/03 10:32:29;;;;;;;;;;;;;;;23.39;18.64;99888.19;5370141;26;33241;-94
2021/04/03 10:34:57;;;;;;;;;;;;;;;23.10;19.02;99885.25;5333613;26;34036;-92
2021/04/03 10:37:27;;;;;;;;;;;;;;;23.59;18.36;99873.25;5334209;26;32929;-94
2021/04/03 10:39:54;;;;;;;;;;;;;;;23.69;18.38;99873.31;5333149;26;32643;-93
2021/04/03 10:42:23;;;;;;;;;;;;;;;23.90;17.98;99868.03;5334504;26;33120;-94
2021/04/03 10:44:50;;;;;;;;;;;;;;;23.50;17.12;99868.69;5333244;26;33094;-94
2021/04/03 10:47:18;;;;;;;;;;;;;;;23.54;17.38;99861.31;5351157;26;33351;-94
2021/04/03 10:49:46;;;;;;;;;;;;;;;23.86;17.84;99863.91;5333055;26;33039;-94
2021/04/03 10:52:14;;;;;;;;;;;;;;;23.90;16.89;99868.03;5332025;26;32262;-94
2021/04/03 10:54:41;;;;;;;;;;;;;;;24.29;16.90;99873.59;5332862;26;33778;-94
2021/04/03 10:57:10;;;;;;;;;;;;;;;23.85;17.35;99870.19;5333046;26;33547;-93
2021/04/03 10:59:38;;;;;;;;;;;;;;;24.26;16.79;99863.19;5332614;26;33054;-93
2021/04/03 11:02:09;;;;;;;;;;;;;;;24.56;16.16;99869.47;5334131;26;32500;-92
2021/04/03 11:04:37;;;;;;;;;;;;;;;24.73;15.68;99888.47;5332845;26;33460;-94
2021/04/03 11:07:05;;;;;;;;;;;;;;;23.49;17.13;99874.97;5332791;26;33550;-95
2021/04/03 11:09:32;;;;;;;;;;;;;;;23.69;16.80;99883.94;5351509;26;34220;-93
2021/04/03 11:12:02;;;;;;;;;;;;;;;23.66;16.64;99884.22;5334420;26;32252;-92
2021/04/03 11:14:29;;;;;;;;;;;;;;;24.31;15.91;99881.44;5332820;26;33426;-93
2021/04/03 11:17:04;;;;;;;;;;;;;;;24.34;15.71;99878.50;5336142;26;33338;-92
2021/04/03 11:19:33;;;;;;;;;;;;;;;24.08;16.43;99881.59;5334163;26;33165;-94
2021/04/03 11:22:01;;;;;;;;;;;;;;;24.24;16.05;99875.78;5352917;26;33261;-93
2021/04/03 11:24:29;;;;;;;;;;;;;;;24.13;16.30;99878.53;5351400;26;32981;-93
2021/04/03 11:26:57;;;;;;;;;;;;;;;24.51;16.15;99867.22;5353045;26;34917;-93
2021/04/03 11:29:46;;;;;;;;;;;;;;;23.51;17.11;99867.72;5357685;26;34019;-93
2021/04/03 11:32:14;;;;;;;;;;;;;;;24.43;15.78;99869.69;5337059;26;33667;-93
2021/04/03 11:34:41;;;;;;;;;;;;;;;23.76;16.25;99855.87;5336355;26;32822;-93
2021/04/03 11:37:10;;;;;;;;;;;;;;;24.49;15.57;99845.22;5334260;26;33462;-94
2021/04/03 11:39:38;;;;;;;;;;;;;;;25.29;14.83;99847.09;5334695;26;32828;-92
2021/04/03 11:42:06;;;;;;;;;;;;;;;21.82;18.18;99845.66;5352630;26;32303;-94
2021/04/03 11:44:36;;;;;;;;;;;;;;;23.40;17.09;99834.06;5334345;26;32969;-93
2021/04/03 11:47:03;;;;;;;;;;;;;;;24.36;16.23;99847.28;5336822;26;33025;-93
2021/04/03 11:49:30;;;;;;;;;;;;;;;24.77;15.79;99848.13;5332572;26;33600;-93
2021/04/03 11:52:01;;;;;;;;;;;;;;;25.09;15.63;99854.19;5332627;26;32610;-93
2021/04/03 11:54:30;;;;;;;;;;;;;;;24.49;15.78;99855.00;5350952;26;33052;-93
2021/04/03 11:57:02;;;;;;;;;;;;;;;24.59;15.61;99855.87;5352346;26;34258;-94
2021/04/03 11:59:31;;;;;;;;;;;;;;;24.83;15.23;99844.91;5333902;26;32793;-93
2021/04/03 12:01:59;;;;;;;;;;;;;;;25.28;15.00;99856.06;5334092;26;32503;-93
2021/04/03 12:04:27;;;;;;;;;;;;;;;24.94;15.11;99862.63;5332944;26;32577;-92
2021/04/03 12:06:54;;;;;;;;;;;;;;;25.55;14.51;99855.38;5333133;26;34035;-93
2021/04/03 12:09:29;;;;;;;;;;;;;;;25.18;14.98;99840.91;5335988;26;32958;-94
2021/04/03 12:11:59;;;;;;;;;;;;;;;25.24;14.62;99847.47;5334558;26;33037;-93
2021/04/03 12:14:28;;;;;;;;;;;;;;;25.62;14.25;99851.16;5332669;26;34393;-93
2021/04/03 12:16:57;;;;;;;;;;;;;;;25.71;14.95;99848.63;5350781;26;34617;-93
2021/04/03 12:19:28;;;;;;;;;;;;;;;25.73;15.04;99846.63;5333437;26;32838;-93
2021/04/03 12:21:55;;;;;;;;;;;;;;;25.95;14.72;99848.16;5332849;26;32253;-94
2021/04/03 12:24:22;;;;;;;;;;;;;;;25.77;15.00;99853.41;5332616;26;33780;-94
2021/04/03 12:26:50;;;;;;;;;;;;;;;25.66;15.02;99854.38;5350952;26;33729;-94
2021/04/03 12:29:18;;;;;;;;;;;;;;;26.12;14.47;99849.25;5333079;26;33023;-95
2021/04/03 12:31:46;;;;;;;;;;;;;;;25.28;15.31;99848.87;5332970;26;32960;-94
2021/04/03 12:34:15;;;;;;;;;;;;;;;25.62;15.08;99840.50;5332928;26;32761;-94
2021/04/03 12:36:43;;;;;;;;;;;;;;;24.70;16.13;99859.47;5333903;26;33125;-92
2021/04/03 12:39:11;;;;;;;;;;;;;;;25.61;15.59;99849.47;5333766;26;34498;-93
2021/04/03 12:41:38;;;;;;;;;;;;;;;25.49;15.59;99851.44;5332245;26;32033;-94
2021/04/03 12:44:10;;;;;;;;;;;;;;;25.28;15.64;99835.56;5333669;26;32851;-93
2021/04/03 12:46:37;;;;;;;;;;;;;;;25.30;15.54;99843.41;5332071;26;34388;-93
2021/04/03 12:49:05;;;;;;;;;;;;;;;25.06;15.41;99836.66;5332416;26;32470;-93
2021/04/03 12:51:34;;;;;;;;;;;;;;;25.25;15.52;99830.50;5332388;26;31821;-94
2021/04/03 12:54:03;;;;;;;;;;;;;;;25.72;14.64;99839.63;5333246;26;32996;-93
2021/04/03 12:56:31;;;;;;;;;;;;;;;25.38;14.79;99848.06;5350148;26;34252;-93
2021/04/03 12:59:01;;;;;;;;;;;;;;;24.71;15.47;99837.19;5333176;26;33922;-93
2021/04/03 13:01:29;;;;;;;;;;;;;;;24.68;15.83;99844.44;5350740;26;32536;-94
2021/04/03 13:03:58;;;;;;;;;;;;;;;24.85;16.07;99831.47;5314462;26;32869;-92
2021/04/03 13:06:28;;;;;;;;;;;;;;;24.80;15.91;99823.03;5351010;26;34445;-93
2021/04/03 13:08:55;;;;;;;;;;;;;;;24.86;15.78;99833.13;5333297;26;34298;-94